Time;durP1;ratioP1;P1;durP2;ratioP2;P2;SDS_P1;SDS_P2;PMS_P1;PMS_P2;Temp;Humidity;BMP_temperature;BMP_pressure;BME280_temperature;BME280_humidity;BME280_pressure;Samples;Min_cycle;Max_cycle;Signal;HPM_P1;HPM_P2
2021/08/23 00:02:08;;;;;;;;;;;;;;;20.91;55.55;101808.92;1796000;79;20261;-71
2021/08/23 00:04:40;;;;;;;;;;;;;;;20.89;55.50;101804.16;1794609;79;20270;-73
2021/08/23 00:07:14;;;;;;;;;;;;;;;20.90;55.55;101809.25;1787073;79;20228;-73
2021/08/23 00:09:47;;;;;;;;;;;;;;;20.89;55.76;101804.16;1795412;78;20263;-71
2021/08/23 00:12:18;;;;;;;;;;;;;;;20.88;55.86;101807.27;1793261;79;20250;-70
2021/08/23 00:14:52;;;;;;;;;;;;;;;20.87;56.11;101812.63;1790070;79;20219;-70
2021/08/23 00:17:25;;;;;;;;;;;;;;;20.86;56.25;101805.30;1799677;79;20558;-72
2021/08/23 00:19:58;;;;;;;;;;;;;;;20.86;56.29;101807.53;1797604;79;20574;-70
2021/08/23 00:22:32;;;;;;;;;;;;;;;20.88;56.37;101812.37;1798488;79;20546;-74
2021/08/23 00:25:03;;;;;;;;;;;;;;;20.87;56.55;101814.03;1801297;79;20227;-72
2021/08/23 00:27:39;;;;;;;;;;;;;;;20.88;56.98;101807.27;1801455;79;20276;-71
2021/08/23 00:30:12;;;;;;;;;;;;;;;20.88;56.79;101812.92;1804749;79;20253;-73
2021/08/23 00:32:44;;;;;;;;;;;;;;;20.84;57.07;101818.89;1799011;79;20726;-72
2021/08/23 00:35:16;;;;;;;;;;;;;;;20.81;57.60;101818.92;1803935;79;20232;-71
2021/08/23 00:37:50;;;;;;;;;;;;;;;20.78;57.39;101822.33;1799474;79;20280;-71
2021/08/23 00:40:23;;;;;;;;;;;;;;;20.76;57.70;101826.59;1795516;79;20189;-70
2021/08/23 00:42:55;;;;;;;;;;;;;;;20.74;57.55;101823.23;1771555;79;20236;-73
2021/08/23 00:45:27;;;;;;;;;;;;;;;20.70;57.62;101823.00;1802663;79;20304;-71
2021/08/23 00:47:59;;;;;;;;;;;;;;;20.63;57.74;101821.67;1799674;79;20272;-72
2021/08/23 00:50:30;;;;;;;;;;;;;;;20.57;57.88;101825.12;1798376;79;20677;-72
2021/08/23 00:53:03;;;;;;;;;;;;;;;20.52;58.12;101822.36;1799561;79;20256;-71
2021/08/23 00:55:35;;;;;;;;;;;;;;;20.47;58.37;101825.82;1797535;79;20623;-73
2021/08/23 00:58:07;;;;;;;;;;;;;;;20.41;58.65;101828.42;1797281;74;20606;-73
2021/08/23 01:00:40;;;;;;;;;;;;;;;20.36;58.87;101825.64;1792162;80;20534;-73
2021/08/23 01:03:15;;;;;;;;;;;;;;;20.31;59.07;101821.45;1794946;80;20315;-74
2021/08/23 01:05:47;;;;;;;;;;;;;;;20.24;59.26;101817.56;1795039;80;20574;-73
2021/08/23 01:08:32;;;;;;;;;;;;;;;20.21;59.46;101821.55;1792049;80;20253;-74
2021/08/23 01:11:05;;;;;;;;;;;;;;;20.20;59.56;101818.45;1795433;80;20253;-73
2021/08/23 01:13:41;;;;;;;;;;;;;;;20.17;59.75;101819.06;1791663;80;20240;-72
2021/08/23 01:16:13;;;;;;;;;;;;;;;20.14;60.04;101823.32;1794864;80;20280;-70
2021/08/23 01:18:50;;;;;;;;;;;;;;;20.11;60.22;101824.48;1771400;80;20267;-73
2021/08/23 01:21:23;;;;;;;;;;;;;;;20.10;60.38;101825.59;1792732;78;20252;-74
2021/08/23 01:23:56;;;;;;;;;;;;;;;20.10;60.60;101821.36;1791456;78;20271;-73
2021/08/23 01:26:29;;;;;;;;;;;;;;;20.07;60.80;101814.92;1795046;80;20292;-72
2021/08/23 01:29:10;;;;;;;;;;;;;;;20.08;60.90;101813.78;1792371;78;20352;-73
2021/08/23 01:32:14;;;;;;;;;;;;;;;20.05;60.93;101815.17;1786412;80;20184;-71
2021/08/23 01:34:49;;;;;;;;;;;;;;;20.01;61.11;101822.56;1762780;80;20218;-74
2021/08/23 01:37:23;;;;;;;;;;;;;;;19.99;61.10;101821.17;1777925;80;20256;-74
2021/08/23 01:39:55;;;;;;;;;;;;;;;19.94;61.15;101820.63;1781626;80;20275;-77
2021/08/23 01:42:27;;;;;;;;;;;;;;;19.88;61.30;101820.39;1778332;80;20423;-74
2021/08/23 01:44:58;;;;;;;;;;;;;;;19.82;61.42;101822.16;1778228;80;20284;-75
2021/08/23 01:47:30;;;;;;;;;;;;;;;19.75;61.49;101818.84;1778909;80;20621;-75
2021/08/23 01:50:01;;;;;;;;;;;;;;;19.72;61.77;101819.41;1777810;80;20258;-75
2021/08/23 01:52:33;;;;;;;;;;;;;;;19.66;62.19;101820.58;1779645;80;20245;-74
2021/08/23 01:55:05;;;;;;;;;;;;;;;19.58;62.36;101816.40;1790481;78;20280;-73
2021/08/23 01:57:37;;;;;;;;;;;;;;;19.58;62.49;101819.80;1780865;80;21121;-73
2021/08/23 02:00:10;;;;;;;;;;;;;;;19.57;62.65;101819.53;1778945;80;20259;-74
2021/08/23 02:02:43;;;;;;;;;;;;;;;19.57;62.66;101821.77;1781434;80;20304;-72
2021/08/23 02:05:15;;;;;;;;;;;;;;;19.58;62.61;101819.80;1779999;78;20255;-74
2021/08/23 02:07:46;;;;;;;;;;;;;;;19.57;62.49;101820.94;1784245;78;20301;-75
2021/08/23 02:10:20;;;;;;;;;;;;;;;19.59;62.43;101825.16;1780780;80;20247;-77
2021/08/23 02:12:52;;;;;;;;;;;;;;;19.60;62.38;101816.11;1779806;78;20185;-75
2021/08/23 02:15:23;;;;;;;;;;;;;;;19.60;62.26;101813.30;1780273;80;20175;-74
2021/08/23 02:17:54;;;;;;;;;;;;;;;19.58;62.24;101812.76;1783776;78;20187;-76
2021/08/23 02:20:27;;;;;;;;;;;;;;;19.55;62.16;101818.41;1776888;80;20744;-74
2021/08/23 02:22:58;;;;;;;;;;;;;;;19.49;62.24;101817.31;1779936;80;20685;-74
2021/08/23 02:25:30;;;;;;;;;;;;;;;19.44;62.37;101818.20;1777297;80;20183;-76
2021/08/23 02:28:01;;;;;;;;;;;;;;;19.38;62.42;101824.17;1781367;80;20712;-76
2021/08/23 02:30:33;;;;;;;;;;;;;;;19.32;62.59;101825.34;1779827;79;20249;-78
2021/08/23 02:33:05;;;;;;;;;;;;;;;19.27;62.84;101830.99;1779923;80;20215;-77
2021/08/23 02:35:39;;;;;;;;;;;;;;;19.24;62.90;101834.38;1784329;78;20213;-78
2021/08/23 02:38:10;;;;;;;;;;;;;;;19.23;62.87;101834.10;1765542;77;20606;-71
2021/08/23 02:40:42;;;;;;;;;;;;;;;19.23;62.87;101836.92;1757847;81;20602;-72
2021/08/23 02:43:14;;;;;;;;;;;;;;;19.23;62.92;101834.10;1757958;81;20290;-74
2021/08/23 02:45:45;;;;;;;;;;;;;;;19.20;63.04;101842.56;1752044;81;20214;-73
2021/08/23 02:48:17;;;;;;;;;;;;;;;19.16;63.09;101842.00;1760747;81;20293;-71
2021/08/23 02:50:48;;;;;;;;;;;;;;;19.11;63.17;101841.47;1758458;81;20225;-71
2021/08/23 02:53:20;;;;;;;;;;;;;;;19.05;63.27;101839.80;1758282;81;20274;-70
2021/08/23 02:55:52;;;;;;;;;;;;;;;19.02;63.33;101843.77;1756769;81;20253;-72
2021/08/23 02:58:24;;;;;;;;;;;;;;;18.99;63.46;101847.14;1757958;81;20254;-75
2021/08/23 03:00:55;;;;;;;;;;;;;;;18.97;63.52;101848.83;1759656;81;20180;-79
2021/08/23 03:03:27;;;;;;;;;;;;;;;18.96;63.70;101844.33;1754266;81;20190;-77
2021/08/23 03:05:58;;;;;;;;;;;;;;;18.99;63.66;101851.36;1758702;81;20323;-74
2021/08/23 03:08:30;;;;;;;;;;;;;;;19.02;63.66;101846.58;1753751;81;20184;-75
2021/08/23 03:11:09;;;;;;;;;;;;;;;19.02;63.59;101846.58;1762139;81;20327;-76
2021/08/23 03:13:41;;;;;;;;;;;;;;;19.02;63.54;101849.39;1761870;81;20186;-76
2021/08/23 03:16:13;;;;;;;;;;;;;;;18.99;63.65;101852.22;1759656;81;20619;-74
2021/08/23 03:18:44;;;;;;;;;;;;;;;18.95;63.63;101861.53;1757897;81;20278;-74
2021/08/23 03:21:16;;;;;;;;;;;;;;;18.96;63.66;101857.59;1759456;81;20263;-76
2021/08/23 03:23:48;;;;;;;;;;;;;;;18.96;63.67;101861.22;1754927;81;20297;-73
2021/08/23 03:26:21;;;;;;;;;;;;;;;18.95;63.63;101862.36;1758163;81;20599;-76
2021/08/23 03:28:53;;;;;;;;;;;;;;;18.94;63.64;101859.27;1757030;81;20668;-76
2021/08/23 03:31:24;;;;;;;;;;;;;;;18.95;63.68;101860.13;1754400;81;20230;-74
2021/08/23 03:33:56;;;;;;;;;;;;;;;18.93;63.80;101860.41;1754014;81;20257;-75
2021/08/23 03:36:27;;;;;;;;;;;;;;;18.95;63.72;101862.36;1770089;76;20543;-74
2021/08/23 03:39:01;;;;;;;;;;;;;;;18.98;63.61;101858.98;1820803;78;20328;-71
2021/08/23 03:41:34;;;;;;;;;;;;;;;19.02;63.41;101857.84;1808499;78;20181;-74
2021/08/23 03:44:06;;;;;;;;;;;;;;;19.05;63.33;101865.70;1812541;78;20308;-72
2021/08/23 03:46:39;;;;;;;;;;;;;;;19.10;63.18;101862.87;1813537;78;20215;-74
2021/08/23 03:49:11;;;;;;;;;;;;;;;19.12;63.07;101860.59;1811866;78;20243;-73
2021/08/23 03:51:43;;;;;;;;;;;;;;;19.13;63.06;101870.17;1818079;77;20330;-73
2021/08/23 03:54:15;;;;;;;;;;;;;;;19.14;62.96;101871.03;1811306;78;20237;-74
2021/08/23 03:56:46;;;;;;;;;;;;;;;19.14;62.93;101874.67;1813976;78;20251;-74
2021/08/23 03:59:17;;;;;;;;;;;;;;;19.15;62.96;101876.94;1814792;78;20265;-72
2021/08/23 04:01:49;;;;;;;;;;;;;;;19.17;62.93;101878.88;1820571;77;20291;-71
2021/08/23 04:04:21;;;;;;;;;;;;;;;19.20;62.88;101872.69;1822215;78;20248;-73
2021/08/23 04:06:53;;;;;;;;;;;;;;;19.22;62.92;101869.04;1823196;78;20323;-74
2021/08/23 04:09:26;;;;;;;;;;;;;;;19.28;62.92;101872.11;1842600;77;20301;-75
2021/08/23 04:11:58;;;;;;;;;;;;;;;19.33;62.67;101874.32;1815326;75;20198;-74
2021/08/23 04:14:30;;;;;;;;;;;;;;;19.42;62.45;101878.23;1767706;80;20275;-76
2021/08/23 04:17:01;;;;;;;;;;;;;;;19.50;62.34;101881.02;1785303;80;20270;-72
2021/08/23 04:19:33;;;;;;;;;;;;;;;19.57;62.06;101878.72;1782706;80;20278;-77
2021/08/23 04:22:05;;;;;;;;;;;;;;;19.62;62.18;101873.05;1772717;80;20259;-76
2021/08/23 04:24:39;;;;;;;;;;;;;;;19.68;61.65;101873.30;1775621;80;20289;-73
2021/08/23 04:27:11;;;;;;;;;;;;;;;19.73;61.25;101873.23;1764937;80;20247;-75
2021/08/23 04:29:43;;;;;;;;;;;;;;;19.79;61.18;101870.66;1768421;80;20248;-77
2021/08/23 04:32:15;;;;;;;;;;;;;;;19.86;60.89;101877.66;1768276;80;20290;-76
2021/08/23 04:34:47;;;;;;;;;;;;;;;19.95;60.86;101879.29;1766978;80;20268;-76
2021/08/23 04:37:19;;;;;;;;;;;;;;;20.04;60.72;101875.55;1771692;80;20319;-75
2021/08/23 04:39:50;;;;;;;;;;;;;;;20.21;60.23;101873.73;1774223;80;20262;-75
2021/08/23 04:42:22;;;;;;;;;;;;;;;20.55;59.51;101878.20;1784672;79;20617;-77
2021/08/23 04:44:55;;;;;;;;;;;;;;;21.01;58.51;101870.09;1784594;80;20324;-76
2021/08/23 04:47:26;;;;;;;;;;;;;;;21.54;57.01;101875.89;1787235;77;20628;-75
2021/08/23 04:49:58;;;;;;;;;;;;;;;22.01;55.96;101872.95;1728091;81;20224;-75
2021/08/23 04:52:30;;;;;;;;;;;;;;;22.44;54.74;101874.49;1755497;81;20370;-75
2021/08/23 04:55:02;;;;;;;;;;;;;;;22.82;53.90;101871.78;1780566;80;20596;-73
2021/08/23 04:57:34;;;;;;;;;;;;;;;23.20;52.51;101867.61;1783072;80;20200;-76
2021/08/23 05:00:08;;;;;;;;;;;;;;;23.56;52.10;101871.34;1788022;80;20289;-74
2021/08/23 05:02:40;;;;;;;;;;;;;;;23.89;50.95;101869.45;1781733;80;20284;-76
2021/08/23 05:05:14;;;;;;;;;;;;;;;24.19;50.71;101865.03;1779200;80;20189;-74
2021/08/23 05:07:45;;;;;;;;;;;;;;;24.43;50.56;101865.51;1784667;79;20327;-75
2021/08/23 05:10:17;;;;;;;;;;;;;;;24.77;49.11;101873.71;1779078;80;20547;-80
2021/08/23 05:12:48;;;;;;;;;;;;;;;25.04;48.96;101868.38;1780416;79;20258;-79
2021/08/23 05:15:20;;;;;;;;;;;;;;;25.23;47.51;101866.12;1781554;79;20677;-77
2021/08/23 05:17:52;;;;;;;;;;;;;;;25.52;47.97;101862.97;1785863;80;20266;-78
2021/08/23 05:20:26;;;;;;;;;;;;;;;25.88;47.51;101860.66;1789403;74;20150;-76
2021/08/23 05:22:57;;;;;;;;;;;;;;;26.22;46.07;101860.66;1787371;80;20254;-75
2021/08/23 05:25:29;;;;;;;;;;;;;;;26.45;44.82;101856.45;1782506;80;20275;-75
2021/08/23 05:28:01;;;;;;;;;;;;;;;26.63;44.35;101852.41;1799890;79;20293;-76
2021/08/23 05:30:33;;;;;;;;;;;;;;;26.78;44.64;101854.73;1768615;80;20247;-77
2021/08/23 05:33:06;;;;;;;;;;;;;;;26.97;43.39;101850.02;1764266;80;20179;-77
2021/08/23 05:35:37;;;;;;;;;;;;;;;26.98;43.76;101850.51;1769509;80;20282;-76
2021/08/23 05:38:10;;;;;;;;;;;;;;;27.13;44.13;101848.28;1777538;81;20255;-78
2021/08/23 05:40:43;;;;;;;;;;;;;;;27.28;42.04;101847.95;1777651;81;20196;-74
2021/08/23 05:43:15;;;;;;;;;;;;;;;27.40;42.91;101839.48;1777487;81;20247;-77
2021/08/23 05:45:48;;;;;;;;;;;;;;;27.50;41.71;101839.68;1777203;81;20263;-80
2021/08/23 05:48:21;;;;;;;;;;;;;;;27.58;41.07;101834.52;1764280;80;20257;-73
2021/08/23 05:50:53;;;;;;;;;;;;;;;27.62;40.95;101840.61;1756646;80;20345;-76
2021/08/23 05:53:24;;;;;;;;;;;;;;;27.74;40.80;101839.26;1746418;82;20607;-75
2021/08/23 05:55:56;;;;;;;;;;;;;;;27.85;40.93;101838.28;1746879;82;20253;-76
2021/08/23 05:58:29;;;;;;;;;;;;;;;27.91;41.03;101834.88;1746990;82;20186;-75
2021/08/23 06:01:01;;;;;;;;;;;;;;;27.99;40.87;101838.23;1746836;82;20214;-76
2021/08/23 06:03:33;;;;;;;;;;;;;;;28.20;38.64;101836.18;1746952;82;20607;-75
2021/08/23 06:06:06;;;;;;;;;;;;;;;28.30;38.26;101838.61;1746769;82;20405;-77
2021/08/23 06:08:38;;;;;;;;;;;;;;;28.30;38.60;101832.89;1746721;82;20257;-76
2021/08/23 06:11:10;;;;;;;;;;;;;;;28.34;38.64;101837.31;1746796;82;20245;-77
2021/08/23 06:13:42;;;;;;;;;;;;;;;28.44;38.74;101832.02;1747066;82;20261;-75
2021/08/23 06:16:14;;;;;;;;;;;;;;;28.58;38.95;101830.27;1747077;82;20194;-78
2021/08/23 06:18:46;;;;;;;;;;;;;;;28.66;39.46;101832.19;1746865;82;20566;-75
2021/08/23 06:21:18;;;;;;;;;;;;;;;28.78;39.99;101833.64;1747389;82;20289;-75
2021/08/23 06:23:51;;;;;;;;;;;;;;;29.04;39.30;101830.73;1757536;82;20522;-76
2021/08/23 06:26:23;;;;;;;;;;;;;;;29.29;39.31;101830.15;1757704;82;20288;-78
2021/08/23 06:28:55;;;;;;;;;;;;;;;29.42;38.89;101829.78;1757654;82;20257;-76
2021/08/23 06:31:26;;;;;;;;;;;;;;;29.43;36.29;101833.47;1757681;82;20613;-76
2021/08/23 06:33:58;;;;;;;;;;;;;;;29.43;34.88;101836.33;1757355;82;20614;-79
2021/08/23 06:36:35;;;;;;;;;;;;;;;29.45;34.35;101831.06;1757608;82;20221;-75
2021/08/23 06:39:09;;;;;;;;;;;;;;;29.42;32.89;101827.51;1757569;82;20698;-75
2021/08/23 06:41:40;;;;;;;;;;;;;;;29.28;33.56;101824.19;1757691;82;20293;-76
2021/08/23 06:44:13;;;;;;;;;;;;;;;29.20;34.23;101824.54;1757672;82;20339;-74
2021/08/23 06:46:45;;;;;;;;;;;;;;;29.12;34.52;101820.36;1757697;82;20258;-75
2021/08/23 06:49:16;;;;;;;;;;;;;;;29.12;34.02;101826.94;1758030;82;20182;-77
2021/08/23 06:51:51;;;;;;;;;;;;;;;28.92;34.61;101817.81;1757956;82;20254;-77
2021/08/23 06:54:23;;;;;;;;;;;;;;;28.85;34.94;101819.00;1774873;77;20589;-77
2021/08/23 06:56:54;;;;;;;;;;;;;;;28.96;34.96;101823.10;1844456;78;20544;-74
2021/08/23 06:59:28;;;;;;;;;;;;;;;29.15;35.24;101820.48;1844540;78;20190;-74
2021/08/23 07:01:59;;;;;;;;;;;;;;;29.28;34.54;101820.71;1844361;78;20179;-77
2021/08/23 07:04:31;;;;;;;;;;;;;;;29.25;33.33;101818.58;1844345;78;20316;-75
2021/08/23 07:07:15;;;;;;;;;;;;;;;29.07;33.12;101821.45;1844520;78;20314;-75
2021/08/23 07:09:41;;;;;;;;;;;;;;;28.92;33.82;101823.53;1843315;78;20241;-77
2021/08/23 07:12:12;;;;;;;;;;;;;;;28.90;32.58;101820.20;1844677;78;20246;-78
2021/08/23 07:14:45;;;;;;;;;;;;;;;28.80;33.01;101822.09;1844707;78;20628;-75
2021/08/23 07:17:16;;;;;;;;;;;;;;;28.86;32.54;101821.28;1844617;78;20286;-75
2021/08/23 07:19:48;;;;;;;;;;;;;;;28.76;33.13;101816.86;1844591;78;20187;-73
2021/08/23 07:22:21;;;;;;;;;;;;;;;28.92;33.15;101816.37;1844094;78;20187;-76
2021/08/23 07:24:53;;;;;;;;;;;;;;;29.05;33.25;101816.66;1844779;78;20251;-75
2021/08/23 07:27:24;;;;;;;;;;;;;;;29.11;33.34;101822.38;1844649;78;20258;-76
2021/08/23 07:29:56;;;;;;;;;;;;;;;29.18;32.82;101816.92;1844458;78;20603;-78
2021/08/23 07:32:27;;;;;;;;;;;;;;;29.01;32.42;101817.73;1844489;78;20271;-76
2021/08/23 07:34:59;;;;;;;;;;;;;;;28.88;33.06;101818.30;1844556;78;20206;-78
2021/08/23 07:37:35;;;;;;;;;;;;;;;28.85;32.64;101813.28;1844563;78;20210;-74
2021/08/23 07:40:07;;;;;;;;;;;;;;;28.78;31.83;101811.61;1844518;78;20631;-76
2021/08/23 07:42:38;;;;;;;;;;;;;;;28.59;32.41;101807.05;1844564;78;20218;-73
2021/08/23 07:45:11;;;;;;;;;;;;;;;28.49;32.48;101817.50;1844435;78;20179;-73
2021/08/23 07:47:44;;;;;;;;;;;;;;;28.41;32.41;101809.86;1844684;78;20198;-74
2021/08/23 07:50:16;;;;;;;;;;;;;;;28.24;32.60;101810.01;1844647;78;20254;-75
2021/08/23 07:52:47;;;;;;;;;;;;;;;28.14;32.77;101816.18;1844691;78;20187;-76
2021/08/23 07:55:23;;;;;;;;;;;;;;;28.10;33.09;101811.50;1843204;78;20206;-73
2021/08/23 07:57:54;;;;;;;;;;;;;;;28.09;34.03;101806.39;1844593;78;20187;-73
2021/08/23 08:00:26;;;;;;;;;;;;;;;28.13;33.08;101806.52;1844623;78;20555;-73
2021/08/23 08:02:58;;;;;;;;;;;;;;;28.07;33.10;101798.73;1844366;78;20279;-77
2021/08/23 08:05:30;;;;;;;;;;;;;;;28.10;33.55;101798.64;1842824;78;20207;-82
2021/08/23 08:08:03;;;;;;;;;;;;;;;28.15;33.78;101797.84;1834927;78;20666;-74
2021/08/23 08:10:36;;;;;;;;;;;;;;;28.24;33.84;101800.00;1832219;78;20287;-74
2021/08/23 08:13:09;;;;;;;;;;;;;;;28.28;33.19;101794.41;1840231;76;20250;-73
2021/08/23 08:15:41;;;;;;;;;;;;;;;28.24;32.60;101797.14;1836906;78;20302;-76
2021/08/23 08:18:14;;;;;;;;;;;;;;;28.16;32.05;101802.36;1849618;77;20335;-74
2021/08/23 08:20:46;;;;;;;;;;;;;;;28.05;32.47;101794.56;1813492;78;20387;-75
2021/08/23 08:23:17;;;;;;;;;;;;;;;28.01;32.51;101795.04;1794529;78;20273;-75
2021/08/23 08:25:52;;;;;;;;;;;;;;;27.94;32.26;101792.73;1848476;77;20296;-74
2021/08/23 08:28:23;;;;;;;;;;;;;;;27.86;32.04;101787.95;1818384;78;20639;-73
2021/08/23 08:31:03;;;;;;;;;;;;;;;27.75;32.00;101785.84;1794877;79;20253;-80
2021/08/23 08:36:45;;;;;;;;;;;;;;;27.68;32.61;101783.54;1849327;77;20244;-76
2021/08/23 08:39:29;;;;;;;;;;;;;;;27.65;31.83;101781.36;1893850;75;20193;-76
2021/08/23 08:42:01;;;;;;;;;;;;;;;27.58;32.39;101787.41;1891111;74;20535;-76
2021/08/23 08:44:36;;;;;;;;;;;;;;;27.56;32.41;101784.05;1906759;74;20189;-74
2021/08/23 08:47:17;;;;;;;;;;;;;;;27.60;32.84;101790.16;1914747;74;20234;-74
2021/08/23 08:49:49;;;;;;;;;;;;;;;27.66;32.94;101778.78;1906831;74;20206;-76
2021/08/23 08:52:21;;;;;;;;;;;;;;;27.76;32.96;101775.48;1906446;75;20754;-76
2021/08/23 08:54:53;;;;;;;;;;;;;;;27.79;32.47;101783.39;1899758;74;20317;-73
2021/08/23 08:57:27;;;;;;;;;;;;;;;27.76;32.37;101781.19;1911136;74;20249;-75
2021/08/23 08:59:58;;;;;;;;;;;;;;;27.79;32.24;101771.12;1909523;74;20433;-80
2021/08/23 09:02:32;;;;;;;;;;;;;;;27.78;32.48;101778.87;1916198;74;20295;-71
2021/08/23 09:05:08;;;;;;;;;;;;;;;27.72;32.81;101780.23;1893361;75;20210;-75
2021/08/23 09:07:39;;;;;;;;;;;;;;;27.64;32.66;101779.70;1880259;75;20249;-72
2021/08/23 09:10:19;;;;;;;;;;;;;;;27.50;32.54;101776.88;1882998;75;20229;-73
2021/08/23 09:13:07;;;;;;;;;;;;;;;27.43;32.47;101783.16;1900415;73;20287;-72
2021/08/23 09:15:41;;;;;;;;;;;;;;;27.38;32.27;101783.93;1908750;75;20206;-70
2021/08/23 09:18:14;;;;;;;;;;;;;;;27.36;32.53;101770.61;1908974;73;20663;-76
2021/08/23 09:20:48;;;;;;;;;;;;;;;27.34;32.29;101775.23;1883153;75;20308;-75
2021/08/23 09:23:39;;;;;;;;;;;;;;;27.34;32.32;101766.66;1906562;73;20309;-76
2021/08/23 09:26:13;;;;;;;;;;;;;;;27.38;32.41;101764.56;1931187;73;20282;-73
2021/08/23 09:29:00;;;;;;;;;;;;;;;27.32;32.49;101763.91;1934501;73;20227;-76
2021/08/23 09:31:35;;;;;;;;;;;;;;;27.35;32.74;101757.52;1916785;73;20302;-75
2021/08/23 09:34:09;;;;;;;;;;;;;;;27.43;32.65;101758.89;1931981;73;20525;-78
2021/08/23 09:36:42;;;;;;;;;;;;;;;27.55;32.96;101760.39;1921333;73;20143;-73
2021/08/23 09:39:17;;;;;;;;;;;;;;;27.62;31.30;101758.38;1805956;73;20292;-71
2021/08/23 09:41:50;;;;;;;;;;;;;;;27.57;31.48;101753.73;1766567;79;20252;-72
2021/08/23 09:44:22;;;;;;;;;;;;;;;27.55;31.89;101748.97;1754184;80;20260;-80
2021/08/23 09:46:57;;;;;;;;;;;;;;;27.61;33.44;101757.56;1783094;79;20256;-76
2021/08/23 09:49:40;;;;;;;;;;;;;;;27.67;32.42;101754.74;1799750;78;20183;-72
2021/08/23 09:52:22;;;;;;;;;;;;;;;27.66;32.05;101741.66;1769586;80;20252;-80
2021/08/23 09:55:08;;;;;;;;;;;;;;;27.64;30.84;101742.58;1769646;80;20321;-75
2021/08/23 09:57:45;;;;;;;;;;;;;;;27.66;31.38;101743.08;1801108;79;20186;-73
2021/08/23 10:00:17;;;;;;;;;;;;;;;27.68;30.42;101746.41;1788230;78;20646;-72
2021/08/23 10:02:50;;;;;;;;;;;;;;;27.60;30.66;101750.19;1782302;79;20317;-73
2021/08/23 10:05:21;;;;;;;;;;;;;;;27.53;30.13;101745.60;1783747;78;20251;-71
2021/08/23 10:07:53;;;;;;;;;;;;;;;27.50;30.80;101748.33;1784544;79;20179;-78
2021/08/23 10:10:25;;;;;;;;;;;;;;;27.52;30.87;101739.66;1756001;80;20579;-71
2021/08/23 10:12:57;;;;;;;;;;;;;;;27.53;30.16;101752.74;1764668;76;21378;-74
2021/08/23 10:15:29;;;;;;;;;;;;;;;27.49;29.91;101746.66;1746581;80;20556;-73
2021/08/23 10:18:08;;;;;;;;;;;;;;;27.47;30.54;101749.03;1779785;79;20191;-74
2021/08/23 10:20:36;;;;;;;;;;;;;;;27.48;30.22;101751.55;1774924;79;20567;-75
2021/08/23 10:23:10;;;;;;;;;;;;;;;27.48;30.11;101739.89;1768414;81;20707;-73
2021/08/23 10:25:42;;;;;;;;;;;;;;;27.50;30.53;101740.61;1788915;79;20249;-73
2021/08/23 10:28:21;;;;;;;;;;;;;;;27.54;29.62;101739.31;1799140;79;21295;-73
2021/08/23 10:30:50;;;;;;;;;;;;;;;27.52;29.78;101738.23;1771398;80;20545;-76
2021/08/23 10:33:21;;;;;;;;;;;;;;;27.50;29.70;101734.05;1747410;80;20251;-74
2021/08/23 10:36:01;;;;;;;;;;;;;;;27.49;30.57;101726.67;1805994;78;20321;-75
2021/08/23 10:38:28;;;;;;;;;;;;;;;27.55;31.26;101726.13;1799857;79;20835;-74
2021/08/23 10:41:08;;;;;;;;;;;;;;;27.60;30.59;101723.06;1743525;81;20289;-77
2021/08/23 10:44:00;;;;;;;;;;;;;;;27.65;30.55;101723.44;1785960;79;20255;-76
2021/08/23 10:46:35;;;;;;;;;;;;;;;27.69;30.12;101719.52;1784000;79;20184;-74
2021/08/23 10:49:15;;;;;;;;;;;;;;;27.71;30.22;101722.03;1777620;80;20365;-77
2021/08/23 10:51:57;;;;;;;;;;;;;;;27.74;30.32;101723.59;1780501;79;20215;-78
2021/08/23 10:54:36;;;;;;;;;;;;;;;27.74;30.37;101720.73;1774497;80;20300;-70
2021/08/23 10:57:12;;;;;;;;;;;;;;;27.76;30.48;101721.83;1827776;77;20603;-74
2021/08/23 10:59:52;;;;;;;;;;;;;;;27.79;29.43;101720.56;1828762;78;20623;-74
2021/08/23 11:02:36;;;;;;;;;;;;;;;27.77;29.76;101712.91;1807530;77;20536;-73
2021/08/23 11:05:21;;;;;;;;;;;;;;;27.78;30.18;101712.34;1805805;77;20642;-74
2021/08/23 11:08:02;;;;;;;;;;;;;;;27.79;30.11;101714.00;1828183;78;20322;-71
2021/08/23 11:10:36;;;;;;;;;;;;;;;27.81;29.62;101718.17;1837117;78;20236;-76
2021/08/23 11:13:12;;;;;;;;;;;;;;;27.78;29.30;101720.32;1819631;77;20300;-73
2021/08/23 11:15:44;;;;;;;;;;;;;;;27.75;28.89;101719.55;1827155;77;20167;-73
2021/08/23 11:18:19;;;;;;;;;;;;;;;27.73;28.61;101712.52;1657768;85;20275;-75
2021/08/23 11:20:52;;;;;;;;;;;;;;;27.69;28.70;101715.85;1632957;86;20191;-77
2021/08/23 11:23:26;;;;;;;;;;;;;;;27.65;28.98;101707.12;1621467;87;20635;-75
2021/08/23 11:26:00;;;;;;;;;;;;;;;27.60;29.08;101709.37;1618657;86;20258;-74
2021/08/23 11:28:32;;;;;;;;;;;;;;;27.56;28.98;101709.23;1619770;87;20579;-75
2021/08/23 11:31:05;;;;;;;;;;;;;;;27.57;29.43;101703.77;1608825;88;20621;-71
2021/08/23 11:33:38;;;;;;;;;;;;;;;27.59;29.58;101704.84;1615511;87;20274;-74
2021/08/23 11:36:19;;;;;;;;;;;;;;;27.62;29.75;101704.98;1651516;81;20225;-71
2021/08/23 11:38:51;;;;;;;;;;;;;;;27.64;28.97;101696.89;1813471;77;20213;-75
2021/08/23 11:41:24;;;;;;;;;;;;;;;27.67;29.37;101702.49;1815172;77;20224;-72
2021/08/23 11:43:59;;;;;;;;;;;;;;;27.66;28.41;101695.97;1820189;77;20569;-75
2021/08/23 11:46:31;;;;;;;;;;;;;;;27.62;29.06;101688.42;1808388;77;20343;-75
2021/08/23 11:49:02;;;;;;;;;;;;;;;27.59;29.22;101682.82;1819615;77;20261;-76
2021/08/23 11:51:36;;;;;;;;;;;;;;;27.58;29.14;101692.58;1813186;77;20241;-74
2021/08/23 11:54:07;;;;;;;;;;;;;;;27.57;29.00;101685.20;1813142;77;20253;-77
2021/08/23 11:56:40;;;;;;;;;;;;;;;27.58;29.22;101685.44;1811985;77;20245;-74
2021/08/23 11:59:14;;;;;;;;;;;;;;;27.60;28.79;101685.09;1748558;80;20379;-73
2021/08/23 12:01:47;;;;;;;;;;;;;;;27.59;28.66;101678.54;1738228;80;20258;-75
2021/08/23 12:04:24;;;;;;;;;;;;;;;27.58;28.42;101684.02;1743991;80;20197;-77
2021/08/23 12:06:59;;;;;;;;;;;;;;;27.58;28.67;101684.63;1725697;80;20671;-79
2021/08/23 12:09:30;;;;;;;;;;;;;;;27.58;29.10;101678.30;1739090;80;20418;-73
2021/08/23 12:12:02;;;;;;;;;;;;;;;27.60;29.20;101677.37;1751562;80;20275;-71
2021/08/23 12:14:33;;;;;;;;;;;;;;;27.62;28.58;101676.42;1749087;80;20254;-70
2021/08/23 12:17:08;;;;;;;;;;;;;;;27.60;28.68;101670.24;1754570;80;20213;-71
2021/08/23 12:19:40;;;;;;;;;;;;;;;27.58;28.99;101675.45;1757838;80;20265;-71
2021/08/23 12:22:17;;;;;;;;;;;;;;;27.58;28.91;101669.73;1750496;80;20230;-75
2021/08/23 12:24:52;;;;;;;;;;;;;;;27.56;29.18;101664.98;1791031;77;20185;-75
2021/08/23 12:27:23;;;;;;;;;;;;;;;27.57;29.07;101665.22;1813253;77;20214;-73
2021/08/23 12:29:55;;;;;;;;;;;;;;;27.57;28.86;101665.22;1804040;77;20184;-73
2021/08/23 12:32:28;;;;;;;;;;;;;;;27.56;29.11;101666.41;1806241;77;20249;-73
2021/08/23 12:35:02;;;;;;;;;;;;;;;27.55;29.06;101664.75;1804901;79;20293;-73
2021/08/23 12:37:35;;;;;;;;;;;;;;;27.53;28.90;101665.66;1811829;77;20256;-73
2021/08/23 12:40:07;;;;;;;;;;;;;;;27.53;28.89;101660.56;1812065;77;20256;-74
2021/08/23 12:42:41;;;;;;;;;;;;;;;27.51;28.76;101650.92;1812286;77;20312;-72
2021/08/23 12:45:13;;;;;;;;;;;;;;;27.50;29.00;101657.82;1808626;77;20300;-72
2021/08/23 12:47:47;;;;;;;;;;;;;;;27.48;28.83;101654.48;1810132;77;20253;-73
2021/08/23 12:50:20;;;;;;;;;;;;;;;27.48;29.21;101653.64;1810700;77;20257;-72
2021/08/23 12:52:52;;;;;;;;;;;;;;;27.48;29.40;101645.08;1807776;77;20629;-75
2021/08/23 12:55:23;;;;;;;;;;;;;;;27.49;29.65;101642.46;1799035;78;20193;-72
2021/08/23 12:57:55;;;;;;;;;;;;;;;27.51;29.17;101645.82;1810423;78;20252;-74
2021/08/23 13:00:27;;;;;;;;;;;;;;;27.49;29.39;101642.46;1762758;79;20264;-73
2021/08/23 13:03:00;;;;;;;;;;;;;;;27.49;29.41;101641.88;1777883;80;20180;-72
2021/08/23 13:05:32;;;;;;;;;;;;;;;27.52;29.83;101635.45;1811277;78;20209;-77
2021/08/23 13:08:04;;;;;;;;;;;;;;;27.54;29.78;101633.69;1814205;78;20268;-74
2021/08/23 13:10:42;;;;;;;;;;;;;;;27.55;28.95;101636.20;1809679;79;20257;-72